Oceanside, New York
Current Conditions -  °F | °C
As of 3:51 PM on Thursday 20 Nov 2014 (Local Time) from KJFK Reporting Station
Few Clouds Few Clouds  
Wind Chill: 38°   Ceiling: Unl
Heat Index: 46°   Visibility: 10mi
Dew Point: 24°   Wind: 20mph
Humidity: 42%   Direction: 260°W
Pressure: 29.86"   Gusts: 28mph
Location:  40.64°N, 73.64°W
Report Text: KJFK 202051Z 26017G24KT 10SM FEW050 08/M04 A2986 RMK AO2 PK WND 26026/2024 SLP112 T00781044 55006
Loading
Personal Weather Stations






























Interactive Weather Map New forecast layout! Learn more

10-Day Weather Forecast

Advertisements
Track Severe Weather on mobile